Time;durP1;ratioP1;P1;durP2;ratioP2;P2;SDS_P1;SDS_P2;PMS_P1;PMS_P2;Temp;Humidity;BMP_temperature;BMP_pressure;BME280_temperature;BME280_humidity;BME280_pressure;Samples;Min_cycle;Max_cycle;Signal;HPM_P1;HPM_P2
2023/07/28 00:01:45;;;;;;;4.28;3.97;;;;;;;19.41;100.00;100427.88;5240248;28;20128;-72
2023/07/28 00:04:16;;;;;;;4.70;4.30;;;;;;;19.38;100.00;100415.00;5245047;28;20036;-72
2023/07/28 00:06:48;;;;;;;4.93;4.53;;;;;;;19.37;100.00;100424.81;5246501;28;20035;-72
2023/07/28 00:09:19;;;;;;;4.55;4.15;;;;;;;19.39;100.00;100421.94;5245981;28;20463;-72
2023/07/28 00:11:50;;;;;;;4.90;4.30;;;;;;;19.39;100.00;100414.78;5243234;28;20040;-72
2023/07/28 00:14:22;;;;;;;5.32;4.60;;;;;;;19.39;100.00;100417.44;5247213;28;20420;-72
2023/07/28 00:16:55;;;;;;;4.77;4.43;;;;;;;19.40;100.00;100418.28;5241626;28;20028;-72
2023/07/28 00:19:27;;;;;;;4.43;4.13;;;;;;;19.32;100.00;100418.44;5240489;28;20664;-72
2023/07/28 00:21:58;;;;;;;5.22;4.65;;;;;;;19.37;100.00;100424.00;5243033;28;20033;-72
2023/07/28 00:24:29;;;;;;;5.07;4.67;;;;;;;19.36;100.00;100415.22;5248227;28;20029;-72
2023/07/28 00:27:01;;;;;;;4.87;4.47;;;;;;;19.35;100.00;100413.53;5247479;28;20021;-72
2023/07/28 00:29:32;;;;;;;5.30;4.90;;;;;;;19.37;100.00;100418.69;5244578;28;20030;-72
2023/07/28 00:32:03;;;;;;;5.25;4.78;;;;;;;19.37;100.00;100408.88;5243539;28;20029;-72
2023/07/28 00:34:34;;;;;;;5.40;4.85;;;;;;;19.38;100.00;100412.34;5242291;28;20021;-72
2023/07/28 00:37:06;;;;;;;4.90;4.50;;;;;;;19.41;100.00;100411.94;5245642;28;20124;-72
2023/07/28 00:39:37;;;;;;;5.40;4.90;;;;;;;19.42;100.00;100408.25;5244116;28;20030;-72
2023/07/28 00:42:09;;;;;;;5.35;4.85;;;;;;;19.40;100.00;100407.66;5245916;28;20064;-72
2023/07/28 00:44:40;;;;;;;5.63;5.13;;;;;;;19.42;100.00;100413.56;5247054;28;20036;-72
2023/07/28 00:47:12;;;;;;;5.70;5.10;;;;;;;19.40;100.00;100394.38;5246246;28;20118;-72
2023/07/28 00:49:43;;;;;;;6.20;5.57;;;;;;;19.42;100.00;100409.09;5247055;28;20036;-72
2023/07/28 00:52:14;;;;;;;5.70;5.20;;;;;;;19.39;100.00;100406.00;5242904;28;20044;-72
2023/07/28 00:54:46;;;;;;;6.00;5.50;;;;;;;19.38;100.00;100402.53;5243098;28;20052;-72
2023/07/28 00:57:18;;;;;;;5.47;5.07;;;;;;;19.38;100.00;100402.53;5247779;28;20028;-72
2023/07/28 01:02:25;;;;;;;6.88;6.25;;;;;;;19.30;100.00;100393.91;5197922;28;20046;-69
2023/07/28 01:04:58;;;;;;;6.25;5.75;;;;;;;19.36;100.00;100406.41;5204135;28;20038;-70
2023/07/28 01:07:33;;;;;;;6.85;6.25;;;;;;;19.45;100.00;100408.69;5206470;28;20034;-69
2023/07/28 01:10:14;;;;;;;6.50;6.00;;;;;;;19.50;100.00;100410.75;5204532;28;21245;-68
2023/07/28 01:12:45;;;;;;;6.68;6.18;;;;;;;19.38;100.00;100412.34;5200557;28;20038;-69
2023/07/28 01:15:17;;;;;;;6.38;5.88;;;;;;;19.43;100.00;100418.72;5202618;28;20368;-69
2023/07/28 01:17:49;;;;;;;7.20;6.57;;;;;;;19.40;100.00;100415.63;5203211;28;20459;-69
2023/07/28 01:20:27;;;;;;;7.07;6.47;;;;;;;19.42;100.00;100418.91;5202196;28;20529;-69
2023/07/28 01:23:09;;;;;;;6.70;6.20;;;;;;;19.50;100.00;100410.75;5202306;28;20030;-69
2023/07/28 01:25:48;;;;;;;6.60;6.10;;;;;;;19.42;100.00;100413.56;5202569;28;20034;-69
2023/07/28 01:28:20;;;;;;;6.93;6.32;;;;;;;19.33;100.00;100418.25;5201800;28;20100;-69
2023/07/28 01:30:52;;;;;;;7.00;6.38;;;;;;;19.38;100.00;100422.97;5202975;28;20410;-68
2023/07/28 01:33:23;;;;;;;7.57;6.87;;;;;;;19.40;100.00;100420.94;5201438;28;20060;-69
2023/07/28 01:35:54;;;;;;;7.33;6.73;;;;;;;19.39;100.00;100425.41;5199512;28;20026;-69
2023/07/28 01:38:26;;;;;;;7.00;6.40;;;;;;;19.39;100.00;100424.59;5201812;28;20014;-70
2023/07/28 01:40:57;;;;;;;7.33;6.73;;;;;;;19.37;100.00;100418.69;5202813;28;20038;-68
2023/07/28 01:43:28;;;;;;;7.23;6.63;;;;;;;19.38;100.00;100418.47;5201162;28;20022;-69
2023/07/28 01:45:59;;;;;;;7.73;6.90;;;;;;;19.35;100.00;100416.19;5200635;28;20491;-69
2023/07/28 01:48:31;;;;;;;7.60;7.00;;;;;;;19.40;100.00;100423.59;5202661;28;20471;-69
2023/07/28 01:51:02;;;;;;;7.13;6.53;;;;;;;19.39;100.00;100427.25;5199102;28;20405;-69
2023/07/28 01:53:33;;;;;;;8.17;7.47;;;;;;;19.38;100.00;100428.28;5202872;28;20667;-69
2023/07/28 01:56:05;;;;;;;8.33;7.53;;;;;;;19.42;100.00;100426.88;5202152;28;20121;-67
2023/07/28 01:58:36;;;;;;;8.73;7.80;;;;;;;19.44;100.00;100423.00;5199295;28;20049;-68
2023/07/28 02:01:07;;;;;;;7.93;7.23;;;;;;;19.40;100.00;100418.28;5197303;28;20514;-68
2023/07/28 02:03:38;;;;;;;9.45;8.10;;;;;;;19.41;100.00;100419.91;5202207;28;20037;-68
2023/07/28 02:06:10;;;;;;;8.77;7.97;;;;;;;19.37;100.00;100424.00;5202002;28;20149;-68
2023/07/28 02:08:41;;;;;;;8.83;7.97;;;;;;;19.33;100.00;100417.44;5203333;28;20076;-69
2023/07/28 02:11:12;;;;;;;9.77;8.80;;;;;;;19.35;100.00;100426.81;5198778;28;20038;-69
2023/07/28 02:13:43;;;;;;;9.82;8.95;;;;;;;19.33;100.00;100420.09;5203687;28;20835;-69
2023/07/28 02:16:15;;;;;;;9.35;8.43;;;;;;;19.37;100.00;100422.16;5198667;28;20030;-69
2023/07/28 02:18:46;;;;;;;8.93;8.02;;;;;;;19.36;100.00;100420.53;5202467;28;20394;-69
2023/07/28 02:21:18;;;;;;;10.38;8.77;;;;;;;19.36;100.00;100417.03;5199140;28;20029;-69
2023/07/28 02:23:49;;;;;;;10.47;9.47;;;;;;;19.35;100.00;100418.03;5200330;28;20057;-69
2023/07/28 02:26:20;;;;;;;9.87;8.97;;;;;;;19.38;100.00;100422.97;5201534;28;20026;-69
2023/07/28 02:28:52;;;;;;;9.93;8.93;;;;;;;19.37;100.00;100424.00;5201110;28;20026;-69
2023/07/28 02:31:23;;;;;;;10.27;9.27;;;;;;;19.37;100.00;100421.34;5201698;28;20041;-69
2023/07/28 02:33:55;;;;;;;10.80;9.30;;;;;;;19.37;100.00;100424.00;5200700;28;20038;-69
2023/07/28 02:36:26;;;;;;;10.18;9.25;;;;;;;19.37;100.00;100424.81;5199888;28;20030;-69
2023/07/28 02:38:57;;;;;;;11.03;10.10;;;;;;;19.35;100.00;100421.50;5199107;28;20026;-70
2023/07/28 02:41:28;;;;;;;10.65;9.75;;;;;;;19.38;100.00;100418.47;5204026;28;20026;-69
2023/07/28 02:44:00;;;;;;;11.02;9.98;;;;;;;19.42;100.00;100421.56;5202079;28;20060;-69
2023/07/28 02:46:31;;;;;;;12.43;10.60;;;;;;;19.41;100.00;100427.88;5201150;28;20056;-67
2023/07/28 02:49:03;;;;;;;11.00;10.00;;;;;;;19.39;100.00;100432.56;5203874;28;20026;-69
2023/07/28 02:51:35;;;;;;;11.95;10.75;;;;;;;19.39;100.00;100427.25;5200866;28;20653;-68
2023/07/28 02:54:06;;;;;;;11.68;10.57;;;;;;;19.41;100.00;100430.53;5197588;28;20034;-69
2023/07/28 02:56:38;;;;;;;13.27;11.87;;;;;;;19.40;100.00;100437.69;5202828;28;20026;-68
2023/07/28 02:59:09;;;;;;;12.17;11.07;;;;;;;19.40;100.00;100440.34;5197374;28;20014;-69
2023/07/28 03:01:40;;;;;;;13.30;11.90;;;;;;;19.38;100.00;100438.91;5204193;28;20471;-69
2023/07/28 03:04:12;;;;;;;12.83;11.53;;;;;;;19.42;100.00;100442.81;5198151;28;20446;-69
2023/07/28 03:06:43;;;;;;;12.43;11.23;;;;;;;19.43;100.00;100439.97;5190835;28;20225;-69
2023/07/28 03:09:15;;;;;;;13.27;11.97;;;;;;;19.45;100.00;100445.06;5193457;28;20037;-69
2023/07/28 03:11:46;;;;;;;12.73;11.43;;;;;;;19.43;100.00;100441.78;5193620;28;20038;-70
2023/07/28 03:14:18;;;;;;;17.33;12.27;;;;;;;19.41;100.00;100441.16;5205467;28;20022;-69
2023/07/28 03:16:49;;;;;;;12.70;11.33;;;;;;;19.41;100.00;100438.50;5194381;28;20026;-69
2023/07/28 03:19:21;;;;;;;13.60;12.20;;;;;;;19.47;100.00;100442.19;5192567;28;20577;-69
2023/07/28 03:21:52;;;;;;;14.80;12.40;;;;;;;19.47;100.00;100444.84;5204129;28;20633;-70
2023/07/28 03:24:23;;;;;;;14.05;12.15;;;;;;;19.40;100.00;100445.66;5198414;28;20045;-69
2023/07/28 03:26:54;;;;;;;13.53;12.07;;;;;;;19.43;100.00;100453.25;5198366;28;20030;-69
2023/07/28 03:29:26;;;;;;;13.23;11.83;;;;;;;19.40;100.00;100450.97;5196703;28;20026;-69
2023/07/28 03:31:57;;;;;;;14.60;12.10;;;;;;;19.41;100.00;100451.78;5199532;28;20795;-69
2023/07/28 03:34:28;;;;;;;15.00;12.50;;;;;;;19.42;100.00;100456.09;5202256;28;20029;-69
2023/07/28 03:36:59;;;;;;;13.93;12.53;;;;;;;19.40;100.00;100461.59;5196816;28;20112;-70
2023/07/28 03:39:31;;;;;;;14.87;12.63;;;;;;;19.40;100.00;100458.13;5192256;28;20097;-70
2023/07/28 03:42:02;;;;;;;15.63;12.45;;;;;;;19.34;100.00;100451.75;5202414;28;20061;-70
2023/07/28 03:44:34;;;;;;;15.43;12.27;;;;;;;19.36;100.00;100456.91;5204055;28;20150;-70
2023/07/28 03:47:05;;;;;;;15.13;12.80;;;;;;;19.42;100.00;100467.53;5198898;28;20042;-70
2023/07/28 03:49:37;;;;;;;16.98;12.55;;;;;;;19.42;100.00;100464.06;5204297;28;20041;-70
2023/07/28 03:52:08;;;;;;;15.00;12.27;;;;;;;19.45;100.00;100479.59;5196748;28;20846;-70
2023/07/28 03:54:39;;;;;;;14.67;13.03;;;;;;;19.45;100.00;100482.25;5200177;28;20026;-70
2023/07/28 03:57:10;;;;;;;13.43;12.13;;;;;;;19.48;100.00;100481.06;5202618;28;20026;-70
2023/07/28 03:59:42;;;;;;;16.97;13.23;;;;;;;19.49;100.00;100480.03;5199018;28;20030;-70
2023/07/28 04:02:13;;;;;;;13.98;12.18;;;;;;;19.43;100.00;100476.31;5197743;28;20049;-70
2023/07/28 04:04:44;;;;;;;15.07;13.47;;;;;;;19.46;100.00;100475.94;5201489;28;20072;-69
2023/07/28 04:07:15;;;;;;;17.07;14.03;;;;;;;19.49;100.00;100477.38;5195468;28;20537;-69
2023/07/28 04:09:47;;;;;;;14.73;12.60;;;;;;;19.45;100.00;100479.59;5196546;28;20072;-69
2023/07/28 04:12:18;;;;;;;13.47;11.90;;;;;;;19.45;100.00;100482.25;5206880;28;20025;-69
2023/07/28 04:14:49;;;;;;;14.70;13.17;;;;;;;19.47;100.00;100482.88;5207287;28;20462;-69
2023/07/28 04:17:20;;;;;;;13.83;12.33;;;;;;;19.45;100.00;100479.59;5201655;28;20513;-69
2023/07/28 04:19:52;;;;;;;12.83;11.53;;;;;;;19.50;100.00;100473.69;5198477;28;20132;-69
2023/07/28 04:22:23;;;;;;;14.40;12.23;;;;;;;19.47;100.00;100472.25;5206908;28;20069;-69
2023/07/28 04:24:54;;;;;;;13.27;11.80;;;;;;;19.45;100.00;100466.31;5203095;28;20497;-69
2023/07/28 04:27:26;;;;;;;13.32;11.90;;;;;;;19.42;100.00;100472.03;5201092;28;20030;-69
2023/07/28 04:29:58;;;;;;;12.87;11.37;;;;;;;19.46;100.00;100478.59;5198535;28;20046;-70
2023/07/28 04:32:29;;;;;;;13.65;12.07;;;;;;;19.43;100.00;100476.31;5205144;28;20027;-70
2023/07/28 04:35:00;;;;;;;14.87;12.07;;;;;;;19.47;100.00;100482.06;5200533;28;20060;-70
2023/07/28 04:37:32;;;;;;;13.65;12.23;;;;;;;19.48;100.00;100478.41;5194572;28;20097;-70
2023/07/28 04:40:04;;;;;;;13.38;11.75;;;;;;;19.50;100.00;100477.16;5194167;28;20027;-70
2023/07/28 04:42:36;;;;;;;16.13;12.07;;;;;;;19.48;100.00;100479.22;5201904;28;20098;-70
2023/07/28 04:45:08;;;;;;;13.50;11.83;;;;;;;19.48;100.00;100476.56;5199451;28;20764;-70
2023/07/28 04:47:39;;;;;;;13.07;11.70;;;;;;;19.49;100.00;100472.06;5194487;28;20033;-70
2023/07/28 04:50:10;;;;;;;13.93;12.10;;;;;;;19.52;100.00;100485.78;5198885;28;21051;-70
2023/07/28 04:52:42;;;;;;;14.23;12.50;;;;;;;19.52;100.00;100477.00;5202998;28;20026;-69
2023/07/28 04:55:13;;;;;;;13.93;11.80;;;;;;;19.51;100.00;100478.84;5200551;28;20046;-69
2023/07/28 04:57:44;;;;;;;15.30;12.27;;;;;;;19.53;100.00;100479.44;5194612;28;20026;-69
2023/07/28 05:00:16;;;;;;;14.35;12.63;;;;;;;19.56;100.00;100478.22;5201512;28;20042;-70
2023/07/28 05:02:47;;;;;;;15.27;12.68;;;;;;;19.54;100.00;100478.41;5203841;28;20045;-70
2023/07/28 05:05:18;;;;;;;14.57;12.95;;;;;;;19.58;100.00;100478.84;5196652;28;20022;-70
2023/07/28 05:07:50;;;;;;;15.07;12.67;;;;;;;19.63;100.00;100481.78;5198170;28;20026;-70
2023/07/28 05:10:21;;;;;;;14.50;13.00;;;;;;;19.58;100.00;100471.69;5199361;28;20092;-69
2023/07/28 05:12:52;;;;;;;14.50;13.00;;;;;;;19.63;100.00;100482.59;5206850;28;20390;-69
2023/07/28 05:15:23;;;;;;;16.40;12.67;;;;;;;19.66;100.00;100495.47;5201569;28;20549;-69
2023/07/28 05:17:55;;;;;;;14.57;13.07;;;;;;;19.68;100.00;100495.28;5197293;28;20033;-70
2023/07/28 05:20:26;;;;;;;15.73;12.53;;;;;;;19.71;100.00;100494.06;5202310;28;20052;-69
2023/07/28 05:22:57;;;;;;;14.05;12.45;;;;;;;19.72;100.00;100496.50;5205774;28;20032;-69
2023/07/28 05:25:29;;;;;;;13.25;11.95;;;;;;;19.71;100.00;100504.69;5196061;28;20028;-69
2023/07/28 05:28:00;;;;;;;16.27;12.27;;;;;;;19.70;100.00;100506.53;5198092;28;20026;-69
2023/07/28 05:30:31;;;;;;;14.07;11.67;;;;;;;19.73;100.00;100510.63;5197707;28;20061;-69
2023/07/28 05:33:02;;;;;;;13.73;12.43;;;;;;;19.73;100.00;100515.94;5206929;28;20385;-69
2023/07/28 05:35:34;;;;;;;14.77;12.90;;;;;;;19.74;100.00;100513.09;5206096;28;20479;-70
2023/07/28 05:38:06;;;;;;;16.57;14.77;;;;;;;19.75;100.00;100511.25;5199270;28;20069;-69
2023/07/28 05:40:37;;;;;;;18.67;15.40;;;;;;;19.76;100.00;100521.69;5198496;28;20081;-69
2023/07/28 05:43:08;;;;;;;17.57;15.83;;;;;;;19.80;100.00;100519.44;5206263;28;20034;-69
2023/07/28 05:45:46;;;;;;;18.60;16.67;;;;;;;19.93;100.00;100530.16;5198325;28;20030;-69
2023/07/28 05:48:17;;;;;;;20.58;17.58;;;;;;;19.75;100.00;100525.38;5197528;28;20052;-69
2023/07/28 05:50:48;;;;;;;21.67;19.63;;;;;;;19.79;100.00;100521.28;5202401;28;20043;-69
2023/07/28 05:53:22;;;;;;;23.83;21.40;;;;;;;19.89;100.00;100539.53;5208993;28;20041;-70
2023/07/28 05:55:54;;;;;;;24.52;22.02;;;;;;;19.80;100.00;100535.41;5197047;28;20057;-70
2023/07/28 05:58:25;;;;;;;25.92;22.90;;;;;;;19.88;100.00;100535.22;5200055;28;20042;-70
2023/07/28 06:00:56;;;;;;;27.83;24.83;;;;;;;19.84;100.00;100523.34;5200744;28;20100;-70
2023/07/28 06:03:29;;;;;;;28.77;25.87;;;;;;;19.85;100.00;100524.97;5202008;28;20039;-68
2023/07/28 06:06:00;;;;;;;29.05;25.38;;;;;;;19.87;100.00;100533.59;5195043;28;20034;-69
2023/07/28 06:08:31;;;;;;;28.73;24.40;;;;;;;19.87;100.00;100533.59;5201333;28;20087;-70
2023/07/28 06:11:05;;;;;;;29.83;26.63;;;;;;;19.91;100.00;100540.16;5198796;28;20061;-69
2023/07/28 06:13:36;;;;;;;29.45;26.13;;;;;;;19.83;100.00;100527.03;5205425;28;20536;-69
2023/07/28 06:16:07;;;;;;;29.55;25.52;;;;;;;19.88;100.00;100538.69;5200872;28;20065;-69
2023/07/28 06:18:39;;;;;;;29.40;25.23;;;;;;;19.93;100.00;100533.63;5197310;28;20022;-70
2023/07/28 06:21:10;;;;;;;29.07;24.97;;;;;;;19.95;100.00;100538.72;5202582;28;20026;-70
2023/07/28 06:23:41;;;;;;;28.03;23.57;;;;;;;19.96;100.00;100537.69;5197417;28;20018;-70
2023/07/28 06:26:12;;;;;;;27.50;23.47;;;;;;;19.92;100.00;100534.63;5193653;28;20038;-70
2023/07/28 06:28:44;;;;;;;26.53;21.80;;;;;;;19.93;100.00;100538.13;5196673;28;21195;-70
2023/07/28 06:31:16;;;;;;;26.50;22.67;;;;;;;19.96;100.00;100548.34;5202260;28;20965;-70
2023/07/28 06:33:47;;;;;;;22.47;20.10;;;;;;;19.97;100.00;100546.53;5197967;28;20110;-70
2023/07/28 06:36:18;;;;;;;22.47;18.13;;;;;;;20.04;100.00;100545.53;5196739;28;20037;-70
2023/07/28 06:38:52;;;;;;;26.13;19.73;;;;;;;20.14;100.00;100551.28;5199652;28;20033;-70
2023/07/28 06:41:23;;;;;;;22.52;18.30;;;;;;;20.13;100.00;100549.63;5201330;28;20122;-70
2023/07/28 06:43:54;;;;;;;20.10;17.27;;;;;;;20.15;100.00;100552.09;5201234;28;20124;-70
2023/07/28 06:46:26;;;;;;;18.07;15.90;;;;;;;20.15;100.00;100554.75;5191598;28;20030;-70
2023/07/28 06:48:59;;;;;;;17.55;15.75;;;;;;;20.18;100.00;100557.81;5201631;28;20398;-70
2023/07/28 06:51:30;;;;;;;19.65;15.50;;;;;;;20.24;100.00;100558.06;5194942;28;20030;-70
2023/07/28 06:54:02;;;;;;;20.50;15.53;;;;;;;20.27;100.00;100563.00;5208812;28;20040;-70
2023/07/28 06:56:34;;;;;;;16.90;15.17;;;;;;;20.24;100.00;100555.41;5201636;28;20030;-70
2023/07/28 06:59:07;;;;;;;17.63;15.63;;;;;;;20.20;100.00;100556.81;5187662;28;20026;-70
2023/07/28 07:01:38;;;;;;;17.05;14.65;;;;;;;20.21;100.00;100563.78;5223212;22;20514;-74
2023/07/28 07:04:11;;;;;;;17.25;14.45;;;;;;;20.29;100.00;100568.91;5226634;28;20029;-74
2023/07/28 07:06:42;;;;;;;17.45;14.45;;;;;;;20.33;100.00;100572.81;5230297;28;20040;-74
2023/07/28 07:09:14;;;;;;;17.00;13.80;;;;;;;20.38;100.00;100576.53;5231109;28;20021;-74
2023/07/28 07:11:46;;;;;;;18.15;13.02;;;;;;;20.38;100.00;100575.69;5228100;28;20108;-74
2023/07/28 07:14:18;;;;;;;15.73;12.97;;;;;;;20.44;100.00;100572.22;5229690;28;20478;-73
2023/07/28 07:16:50;;;;;;;15.02;12.90;;;;;;;20.45;100.00;100579.19;5230820;28;20029;-73
2023/07/28 07:19:21;;;;;;;15.10;12.70;;;;;;;20.45;100.00;100589.00;5230999;28;20505;-74
2023/07/28 07:21:52;;;;;;;15.43;12.93;;;;;;;20.37;100.00;100579.38;5229739;28;20413;-73
2023/07/28 07:24:23;;;;;;;13.30;11.43;;;;;;;20.45;100.00;100584.50;5226186;28;20033;-73
2023/07/28 07:26:55;;;;;;;13.50;10.87;;;;;;;20.48;100.00;100589.44;5229088;28;20116;-74
2023/07/28 07:29:26;;;;;;;14.00;11.57;;;;;;;20.42;100.00;100590.25;5231298;28;20095;-74
2023/07/28 07:31:57;;;;;;;11.83;10.60;;;;;;;20.40;100.00;100582.44;5229702;28;20061;-74
2023/07/28 07:34:29;;;;;;;12.00;9.47;;;;;;;20.44;100.00;100582.06;5231329;28;20095;-73
2023/07/28 07:37:01;;;;;;;10.53;9.43;;;;;;;20.45;100.00;100594.31;5231960;28;20115;-73
2023/07/28 07:39:33;;;;;;;13.00;9.02;;;;;;;20.47;100.00;100590.47;5230339;28;20109;-73
2023/07/28 07:42:05;;;;;;;10.10;9.13;;;;;;;20.49;100.00;100595.56;5230257;28;20030;-73
2023/07/28 07:44:37;;;;;;;10.00;8.90;;;;;;;20.58;100.00;100594.41;5229926;28;20040;-73
2023/07/28 07:47:14;;;;;;;9.50;8.07;;;;;;;20.74;100.00;100595.88;5234693;28;20025;-73
2023/07/28 07:49:45;;;;;;;8.30;7.47;;;;;;;20.67;100.00;100600.34;5236212;28;20453;-73
2023/07/28 07:52:16;;;;;;;10.27;9.13;;;;;;;20.65;100.00;100601.38;5236118;28;20017;-73
2023/07/28 07:54:48;;;;;;;11.37;8.70;;;;;;;20.67;100.00;100608.34;5234909;28;20052;-72
2023/07/28 07:57:19;;;;;;;9.67;8.77;;;;;;;20.62;100.00;100604.44;5248062;28;20498;-73
2023/07/28 07:59:50;;;;;;;11.03;8.37;;;;;;;20.64;100.00;100604.22;5234868;28;20516;-74
2023/07/28 08:02:21;;;;;;;8.07;7.27;;;;;;;20.69;100.00;100600.97;5234468;28;20144;-73
2023/07/28 08:04:54;;;;;;;7.97;7.17;;;;;;;20.72;100.00;100598.75;5233686;28;20037;-73
2023/07/28 08:07:26;;;;;;;8.38;7.25;;;;;;;20.72;100.00;100603.22;5233762;28;20036;-73
2023/07/28 08:09:57;;;;;;;8.20;7.40;;;;;;;20.71;100.00;100598.94;5233520;28;20037;-73
2023/07/28 08:12:28;;;;;;;10.53;9.43;;;;;;;20.74;100.00;100611.84;5234809;28;20021;-73
2023/07/28 08:15:00;;;;;;;12.20;11.10;;;;;;;20.70;100.00;100613.25;5232998;28;20116;-73
2023/07/28 08:17:31;;;;;;;11.30;10.17;;;;;;;20.76;100.00;100613.28;5233098;28;20034;-73
2023/07/28 08:20:03;;;;;;;9.37;8.50;;;;;;;20.73;100.00;100607.53;5234363;28;20025;-73
2023/07/28 08:22:35;;;;;;;7.80;7.10;;;;;;;20.76;100.00;100613.28;5232882;28;20025;-73
2023/07/28 08:25:06;;;;;;;6.60;6.07;;;;;;;20.81;100.00;100613.47;5233497;28;20037;-73
2023/07/28 08:27:37;;;;;;;7.57;6.87;;;;;;;20.87;100.00;100619.81;5231675;28;20029;-73
2023/07/28 08:30:09;;;;;;;7.97;7.23;;;;;;;20.93;100.00;100619.03;5234094;28;20029;-73
2023/07/28 08:32:42;;;;;;;7.03;6.27;;;;;;;21.01;100.00;100623.34;5232690;28;20036;-73
2023/07/28 08:35:13;;;;;;;;;;;;;;;21.75;100.00;100622.28;5234134;28;20021;-73
2023/07/28 08:37:45;;;;;;;5.30;4.90;;;;;;;21.26;100.00;100627.03;5233455;28;20340;-73
2023/07/28 08:40:16;;;;;;;5.17;4.67;;;;;;;21.36;100.00;100626.63;5232608;28;20075;-73
2023/07/28 08:42:49;;;;;;;5.47;5.00;;;;;;;21.40;100.00;100627.03;5233901;28;20109;-73
2023/07/28 08:45:21;;;;;;;6.90;5.30;;;;;;;21.41;100.00;100624.19;5233340;28;20021;-73
2023/07/28 08:47:52;;;;;;;5.87;5.37;;;;;;;21.54;100.00;100629.50;5232737;28;20452;-73
2023/07/28 08:50:23;;;;;;;5.50;5.00;;;;;;;21.71;100.00;100632.56;5232115;28;20079;-73
2023/07/28 08:52:56;;;;;;;5.53;5.03;;;;;;;21.90;100.00;100635.38;5231630;28;20033;-73
2023/07/28 08:55:27;;;;;;;4.63;4.22;;;;;;;21.92;100.00;100638.66;5233660;28;20099;-73
2023/07/28 08:58:20;;;;;;;5.07;4.63;;;;;;;22.24;100.00;100626.25;5232585;28;20029;-73
2023/07/28 09:00:52;;;;;;;4.60;4.20;;;;;;;22.03;100.00;100628.13;5232525;28;20025;-73
2023/07/28 09:03:27;;;;;;;4.78;4.25;;;;;;;22.24;100.00;100626.25;5232567;28;20033;-72
2023/07/28 09:06:02;;;;;;;5.15;4.75;;;;;;;22.47;100.00;100637.22;5232633;28;20144;-72
2023/07/28 09:08:35;;;;;;;6.35;5.45;;;;;;;22.46;100.00;100630.22;5231911;28;20029;-72
2023/07/28 09:11:06;;;;;;;6.57;6.07;;;;;;;22.63;100.00;100633.22;5231445;28;20478;-71
2023/07/28 09:13:41;;;;;;;6.33;5.80;;;;;;;22.72;100.00;100633.78;5232944;28;20035;-72
2023/07/28 09:16:20;;;;;;;6.15;5.65;;;;;;;23.05;100.00;100642.44;5232102;28;20029;-72
2023/07/28 09:19:04;;;;;;;6.20;5.70;;;;;;;23.31;100.00;100632.56;5231432;28;20025;-72
2023/07/28 09:21:37;;;;;;;6.00;5.50;;;;;;;23.31;100.00;100644.06;5233275;28;20433;-72
2023/07/28 09:24:12;;;;;;;6.10;5.47;;;;;;;23.41;100.00;100646.25;5232758;28;20445;-72
2023/07/28 09:26:48;;;;;;;5.88;5.38;;;;;;;23.60;100.00;100646.28;5232533;28;20075;-72
2023/07/28 09:29:20;;;;;;;6.80;6.20;;;;;;;23.60;100.00;100638.25;5230812;28;20021;-72
2023/07/28 09:31:52;;;;;;;6.43;5.93;;;;;;;23.70;100.00;100644.75;5231773;28;20397;-72
2023/07/28 09:34:27;;;;;;;6.23;5.73;;;;;;;23.89;100.00;100648.25;5233707;28;20221;-72
2023/07/28 09:37:00;;;;;;;5.90;5.40;;;;;;;23.77;100.00;100637.50;5232314;28;20390;-72
2023/07/28 09:39:32;;;;;;;5.60;5.20;;;;;;;23.91;100.00;100640.84;5231998;28;20104;-72
2023/07/28 09:42:09;;;;;;;4.72;4.38;;;;;;;23.82;100.00;100639.50;5230241;28;20029;-72
2023/07/28 09:44:40;;;;;;;5.03;4.63;;;;;;;23.84;100.00;100650.81;5233048;28;20040;-73
2023/07/28 09:47:12;;;;;;;5.27;4.87;;;;;;;23.97;100.00;100647.97;5233411;28;20474;-73
2023/07/28 09:49:48;;;;;;;5.28;4.88;;;;;;;24.04;100.00;100647.91;5232394;28;20053;-72
2023/07/28 09:52:23;;;;;;;6.03;4.63;;;;;;;24.10;100.00;100648.88;5232267;28;20112;-72
2023/07/28 09:54:57;;;;;;;4.10;3.80;;;;;;;23.85;100.00;100652.44;5232327;28;20029;-72
2023/07/28 09:57:29;;;;;;;3.20;2.90;;;;;;;23.90;100.00;100646.41;5230451;28;20033;-72
2023/07/28 10:00:02;;;;;;;4.40;3.13;;;;;;;24.00;100.00;100660.09;5231614;28;20037;-73
2023/07/28 10:02:35;;;;;;;4.07;2.92;;;;;;;23.83;100.00;100653.69;5231651;28;20044;-73
2023/07/28 10:05:07;;;;;;;3.53;3.22;;;;;;;23.84;100.00;100655.34;5231810;28;20087;-72
2023/07/28 10:07:40;;;;;;;3.65;3.25;;;;;;;23.92;100.00;100649.69;5231438;28;20025;-72
2023/07/28 10:10:13;;;;;;;3.92;3.53;;;;;;;23.72;100.00;100652.59;5230373;28;20482;-73
2023/07/28 10:12:52;;;;;;;3.45;3.15;;;;;;;23.89;100.00;100652.81;5231840;28;20037;-73
2023/07/28 10:15:31;;;;;;;3.25;2.95;;;;;;;23.92;100.00;100663.88;5231067;28;20043;-73
2023/07/28 10:18:06;;;;;;;3.75;3.15;;;;;;;23.92;100.00;100653.19;5231285;28;20026;-72
2023/07/28 10:20:40;;;;;;;5.32;3.30;;;;;;;23.97;100.00;100656.00;5232235;28;20115;-72
2023/07/28 10:23:13;;;;;;;3.45;3.10;;;;;;;24.08;100.00;100654.44;5231037;28;20038;-72
2023/07/28 10:25:45;;;;;;;3.63;3.10;;;;;;;24.20;100.00;100655.31;5229340;28;20051;-72
2023/07/28 10:28:31;;;;;;;4.22;3.45;;;;;;;24.51;100.00;100659.72;5230231;28;20548;-72
2023/07/28 10:31:02;;;;;;;3.00;2.80;;;;;;;24.36;100.00;100659.25;5231816;28;21038;-72
2023/07/28 10:33:39;;;;;;;3.10;2.77;;;;;;;24.65;100.00;100660.31;5231733;28;20034;-72
2023/07/28 10:36:11;;;;;;;2.85;2.30;;;;;;;24.70;100.00;100668.50;5231619;28;20040;-72
2023/07/28 10:38:43;;;;;;;4.05;2.17;;;;;;;24.77;100.00;100668.41;5231634;28;20033;-72
2023/07/28 10:41:17;;;;;;;2.17;1.90;;;;;;;24.82;100.00;100659.69;5228950;28;20033;-72
2023/07/28 10:43:49;;;;;;;2.90;1.88;;;;;;;24.63;100.00;100656.25;5230630;28;20029;-72
2023/07/28 10:46:21;;;;;;;2.43;1.90;;;;;;;24.66;100.00;100651.25;5229787;28;20552;-72
2023/07/28 10:48:53;;;;;;;2.05;1.77;;;;;;;24.81;100.00;100658.03;5231015;28;20029;-72
2023/07/28 10:51:28;;;;;;;2.20;2.00;;;;;;;25.01;100.00;100658.59;5230364;28;20036;-72
2023/07/28 10:54:04;;;;;;;3.17;2.20;;;;;;;25.09;100.00;100647.53;5230776;28;20033;-72
2023/07/28 10:56:35;;;;;;;3.08;2.33;;;;;;;25.19;100.00;100650.50;5231957;28;20557;-73
2023/07/28 10:59:06;;;;;;;2.50;2.10;;;;;;;25.30;100.00;100645.34;5231200;28;20017;-72
2023/07/28 11:01:40;;;;;;;2.27;2.07;;;;;;;25.54;100.00;100655.03;5230294;28;20444;-72
2023/07/28 11:04:16;;;;;;;4.15;2.25;;;;;;;25.77;100.00;100645.34;5227998;28;20037;-72
2023/07/28 11:06:49;;;;;;;2.92;1.73;;;;;;;25.98;100.00;100650.13;5229374;28;20116;-70
2023/07/28 11:09:23;;;;;;;3.90;1.80;;;;;;;26.04;100.00;100635.75;5229688;28;20033;-71
2023/07/28 11:11:55;;;;;;;2.22;1.50;;;;;;;25.99;100.00;100653.59;5230941;28;20033;-71
2023/07/28 11:14:26;;;;;;;1.73;1.60;;;;;;;26.11;100.00;100646.38;5231698;28;20068;-72
2023/07/28 11:16:57;;;;;;;1.60;1.10;;;;;;;26.19;100.00;100646.81;5229789;28;20458;-70
2023/07/28 11:19:29;;;;;;;1.60;1.33;;;;;;;26.23;100.00;100647.13;5230720;28;20198;-72
2023/07/28 11:22:00;;;;;;;1.33;1.20;;;;;;;26.28;100.00;100649.09;5234336;28;20033;-71
2023/07/28 11:24:33;;;;;;;2.33;1.60;;;;;;;26.46;100.00;100648.94;5233294;28;20044;-72
2023/07/28 11:27:05;;;;;;;2.95;1.30;;;;;;;26.41;100.00;100649.66;5234886;28;20025;-71
2023/07/28 11:29:36;;;;;;;1.50;1.10;;;;;;;26.46;100.00;100648.13;5233818;28;20122;-73
2023/07/28 11:32:08;;;;;;;1.43;1.17;;;;;;;26.40;100.00;100644.50;5234766;28;20068;-74
2023/07/28 11:34:41;;;;;;;2.67;1.23;;;;;;;26.52;100.00;100647.16;5231678;28;20029;-73